sensor_id;sensor_type;location;lat;lon;timestamp;pressure;altitude;pressure_sealevel;temperature;humidity
22283;BME280;11310;51.528;21.204;2023-02-28T00:02:23;101429.34;;;-4.33;100.00
22283;BME280;11310;51.528;21.204;2023-02-28T00:04:52;101421.63;;;-4.34;100.00
22283;BME280;11310;51.528;21.204;2023-02-28T00:07:31;101434.38;;;-4.36;100.00
22283;BME280;11310;51.528;21.204;2023-02-28T00:10:00;101432.50;;;-4.40;100.00
22283;BME280;11310;51.528;21.204;2023-02-28T00:12:30;101431.47;;;-4.45;100.00
22283;BME280;11310;51.528;21.204;2023-02-28T00:14:58;101433.09;;;-4.47;100.00
22283;BME280;11310;51.528;21.204;2023-02-28T00:17:27;101432.88;;;-4.53;100.00
22283;BME280;11310;51.528;21.204;2023-02-28T00:19:55;101437.88;;;-4.56;100.00
22283;BME280;11310;51.528;21.204;2023-02-28T00:22:30;101432.66;;;-4.59;100.00
22283;BME280;11310;51.528;21.204;2023-02-28T00:24:59;101436.03;;;-4.60;100.00
22283;BME280;11310;51.528;21.204;2023-02-28T00:27:27;101434.19;;;-4.64;100.00
22283;BME280;11310;51.528;21.204;2023-02-28T00:29:56;101432.34;;;-4.68;100.00
22283;BME280;11310;51.528;21.204;2023-02-28T00:32:25;101432.34;;;-4.68;100.00
22283;BME280;11310;51.528;21.204;2023-02-28T00:34:54;101430.47;;;-4.72;100.00
22283;BME280;11310;51.528;21.204;2023-02-28T00:37:22;101437.16;;;-4.75;100.00
22283;BME280;11310;51.528;21.204;2023-02-28T00:39:52;101435.38;;;-4.78;100.00
22283;BME280;11310;51.528;21.204;2023-02-28T00:42:21;101435.25;;;-4.81;100.00
22283;BME280;11310;51.528;21.204;2023-02-28T00:44:50;101438.72;;;-4.79;100.00
22283;BME280;11310;51.528;21.204;2023-02-28T00:47:19;101439.59;;;-4.78;100.00
22283;BME280;11310;51.528;21.204;2023-02-28T00:49:47;101436.16;;;-4.79;100.00
22283;BME280;11310;51.528;21.204;2023-02-28T00:52:16;101436.91;;;-4.81;100.00
22283;BME280;11310;51.528;21.204;2023-02-28T00:54:45;101441.06;;;-4.85;100.00
22283;BME280;11310;51.528;21.204;2023-02-28T00:57:15;101434.00;;;-4.90;100.00
22283;BME280;11310;51.528;21.204;2023-02-28T00:59:44;101432.91;;;-4.97;100.00
22283;BME280;11310;51.528;21.204;2023-02-28T01:02:13;101440.50;;;-5.00;100.00
22283;BME280;11310;51.528;21.204;2023-02-28T01:04:41;101443.91;;;-4.99;100.00
22283;BME280;11310;51.528;21.204;2023-02-28T01:07:10;101436.19;;;-5.01;100.00
22283;BME280;11310;51.528;21.204;2023-02-28T01:09:39;101438.69;;;-5.02;100.00
22283;BME280;11310;51.528;21.204;2023-02-28T01:12:08;101436.13;;;-5.02;100.00
22283;BME280;11310;51.528;21.204;2023-02-28T01:14:39;101439.59;;;-5.00;100.00
22283;BME280;11310;51.528;21.204;2023-02-28T01:17:09;101432.81;;;-5.00;100.00
22283;BME280;11310;51.528;21.204;2023-02-28T01:19:38;101442.22;;;-4.99;100.00
22283;BME280;11310;51.528;21.204;2023-02-28T01:22:07;101436.22;;;-4.99;100.00
22283;BME280;11310;51.528;21.204;2023-02-28T01:24:37;101429.31;;;-5.02;100.00
22283;BME280;11310;51.528;21.204;2023-02-28T01:27:05;101428.44;;;-5.02;100.00
22283;BME280;11310;51.528;21.204;2023-02-28T01:29:36;101422.50;;;-5.01;100.00
22283;BME280;11310;51.528;21.204;2023-02-28T01:32:06;101431.06;;;-5.01;100.00
22283;BME280;11310;51.528;21.204;2023-02-28T01:34:35;101425.91;;;-5.02;100.00
22283;BME280;11310;51.528;21.204;2023-02-28T01:37:04;101422.44;;;-5.03;100.00
22283;BME280;11310;51.528;21.204;2023-02-28T01:39:32;101426.59;;;-5.06;100.00
22283;BME280;11310;51.528;21.204;2023-02-28T01:42:03;101420.50;;;-5.10;100.00
22283;BME280;11310;51.528;21.204;2023-02-28T01:44:57;101428.91;;;-5.12;100.00
22283;BME280;11310;51.528;21.204;2023-02-28T01:47:30;101428.84;;;-5.14;100.00
22283;BME280;11310;51.528;21.204;2023-02-28T01:50:02;101436.34;;;-5.18;100.00
22283;BME280;11310;51.528;21.204;2023-02-28T01:52:33;101429.34;;;-5.22;100.00
22283;BME280;11310;51.528;21.204;2023-02-28T01:55:04;101430.84;;;-5.27;100.00
22283;BME280;11310;51.528;21.204;2023-02-28T01:57:38;101436.78;;;-5.28;100.00
22283;BME280;11310;51.528;21.204;2023-02-28T02:00:10;101432.38;;;-5.32;100.00
22283;BME280;11310;51.528;21.204;2023-02-28T02:02:49;101428.69;;;-5.39;100.00
22283;BME280;11310;51.528;21.204;2023-02-28T02:05:21;101434.47;;;-5.43;100.00
22283;BME280;11310;51.528;21.204;2023-02-28T02:07:54;101431.84;;;-5.46;100.00
22283;BME280;11310;51.528;21.204;2023-02-28T02:10:27;101437.72;;;-5.47;100.00
22283;BME280;11310;51.528;21.204;2023-02-28T02:13:08;101430.94;;;-5.46;100.00
22283;BME280;11310;51.528;21.204;2023-02-28T02:15:42;101429.34;;;-5.44;100.00
22283;BME280;11310;51.528;21.204;2023-02-28T02:18:20;101435.53;;;-5.38;100.00
22283;BME280;11310;51.528;21.204;2023-02-28T02:21:40;101435.75;;;-5.33;100.00
22283;BME280;11310;51.528;21.204;2023-02-28T02:24:42;101435.81;;;-5.32;100.00
22283;BME280;11310;51.528;21.204;2023-02-28T02:27:26;101440.72;;;-5.36;100.00
22283;BME280;11310;51.528;21.204;2023-02-28T02:30:33;101446.59;;;-5.39;100.00
22283;BME280;11310;51.528;21.204;2023-02-28T02:33:31;101435.53;;;-5.38;100.00
22283;BME280;11310;51.528;21.204;2023-02-28T02:36:12;101434.75;;;-5.37;100.00
22283;BME280;11310;51.528;21.204;2023-02-28T02:38:47;101439.88;;;-5.37;100.00
22283;BME280;11310;51.528;21.204;2023-02-28T02:41:19;101447.69;;;-5.32;100.00
22283;BME280;11310;51.528;21.204;2023-02-28T02:43:56;101438.44;;;-5.30;100.00
22283;BME280;11310;51.528;21.204;2023-02-28T02:46:29;101440.09;;;-5.31;100.00
22283;BME280;11310;51.528;21.204;2023-02-28T02:48:59;101440.09;;;-5.31;100.00
22283;BME280;11310;51.528;21.204;2023-02-28T02:51:32;101440.91;;;-5.32;100.00
22283;BME280;11310;51.528;21.204;2023-02-28T02:54:04;101440.03;;;-5.32;100.00
22283;BME280;11310;51.528;21.204;2023-02-28T02:56:34;101443.53;;;-5.30;100.00
22283;BME280;11310;51.528;21.204;2023-02-28T02:59:07;101445.34;;;-5.28;100.00
22283;BME280;11310;51.528;21.204;2023-02-28T03:01:40;101447.94;;;-5.26;100.00
22283;BME280;11310;51.528;21.204;2023-02-28T03:04:11;101446.25;;;-5.26;100.00
22283;BME280;11310;51.528;21.204;2023-02-28T03:06:42;101445.50;;;-5.23;100.00
22283;BME280;11310;51.528;21.204;2023-02-28T03:09:12;101454.16;;;-5.20;100.00
22283;BME280;11310;51.528;21.204;2023-02-28T03:11:41;101453.41;;;-5.17;100.00
22283;BME280;11310;51.528;21.204;2023-02-28T03:14:22;101454.44;;;-5.14;100.00
22283;BME280;11310;51.528;21.204;2023-02-28T03:17:08;101456.97;;;-5.14;100.00
22283;BME280;11310;51.528;21.204;2023-02-28T03:19:55;101467.16;;;-5.15;100.00
22283;BME280;11310;51.528;21.204;2023-02-28T03:22:52;101464.66;;;-5.14;100.00
22283;BME280;11310;51.528;21.204;2023-02-28T03:25:30;101464.66;;;-5.14;100.00
22283;BME280;11310;51.528;21.204;2023-02-28T03:28:05;101472.34;;;-5.14;100.00
22283;BME280;11310;51.528;21.204;2023-02-28T03:30:42;101470.56;;;-5.15;100.00
22283;BME280;11310;51.528;21.204;2023-02-28T03:33:15;101469.63;;;-5.17;100.00
22283;BME280;11310;51.528;21.204;2023-02-28T03:35:49;101472.88;;;-5.21;100.00
22283;BME280;11310;51.528;21.204;2023-02-28T03:38:24;101471.00;;;-5.25;100.00
22283;BME280;11310;51.528;21.204;2023-02-28T03:41:01;101470.94;;;-5.26;100.00
22283;BME280;11310;51.528;21.204;2023-02-28T03:43:36;101469.13;;;-5.29;100.00
22283;BME280;11310;51.528;21.204;2023-02-28T03:46:10;101478.38;;;-5.32;100.00
22283;BME280;11310;51.528;21.204;2023-02-28T03:48:42;101470.72;;;-5.32;100.00
22283;BME280;11310;51.528;21.204;2023-02-28T03:51:16;101470.56;;;-5.35;100.00
22283;BME280;11310;51.528;21.204;2023-02-28T03:53:52;101468.16;;;-5.32;100.00
22283;BME280;11310;51.528;21.204;2023-02-28T03:56:24;101472.66;;;-5.27;100.00
22283;BME280;11310;51.528;21.204;2023-02-28T03:58:57;101467.63;;;-5.24;100.00
22283;BME280;11310;51.528;21.204;2023-02-28T04:01:32;101475.38;;;-5.22;100.00
22283;BME280;11310;51.528;21.204;2023-02-28T04:04:02;101475.38;;;-5.22;100.00
22283;BME280;11310;51.528;21.204;2023-02-28T04:06:32;101475.44;;;-5.21;100.00
22283;BME280;11310;51.528;21.204;2023-02-28T04:09:06;101478.88;;;-5.20;100.00
22283;BME280;11310;51.528;21.204;2023-02-28T04:11:36;101473.69;;;-5.22;100.00
22283;BME280;11310;51.528;21.204;2023-02-28T04:14:07;101477.88;;;-5.24;100.00
22283;BME280;11310;51.528;21.204;2023-02-28T04:16:39;101472.50;;;-5.30;100.00
22283;BME280;11310;51.528;21.204;2023-02-28T04:19:11;101472.44;;;-5.31;100.00
22283;BME280;11310;51.528;21.204;2023-02-28T04:21:41;101475.75;;;-5.34;100.00
22283;BME280;11310;51.528;21.204;2023-02-28T04:24:14;101481.69;;;-5.35;100.00
22283;BME280;11310;51.528;21.204;2023-02-28T04:26:44;101477.41;;;-5.36;100.00
22283;BME280;11310;51.528;21.204;2023-02-28T04:29:17;101468.84;;;-5.36;100.00
22283;BME280;11310;51.528;21.204;2023-02-28T04:31:47;101483.25;;;-5.38;100.00
22283;BME280;11310;51.528;21.204;2023-02-28T04:34:17;101480.50;;;-5.43;100.00
22283;BME280;11310;51.528;21.204;2023-02-28T04:36:45;101477.91;;;-5.44;100.00
22283;BME280;11310;51.528;21.204;2023-02-28T04:39:36;101471.66;;;-5.51;100.00
22283;BME280;11310;51.528;21.204;2023-02-28T04:42:04;101472.34;;;-5.55;100.00
22283;BME280;11310;51.528;21.204;2023-02-28T04:44:33;101474.03;;;-5.55;100.00
22283;BME280;11310;51.528;21.204;2023-02-28T04:47:02;101472.28;;;-5.56;100.00
22283;BME280;11310;51.528;21.204;2023-02-28T04:49:31;101476.50;;;-5.57;100.00
22283;BME280;11310;51.528;21.204;2023-02-28T04:51:59;101487.47;;;-5.59;100.00
22283;BME280;11310;51.528;21.204;2023-02-28T04:54:28;101480.50;;;-5.63;100.00
22283;BME280;11310;51.528;21.204;2023-02-28T04:56:58;101476.81;;;-5.70;100.00
22283;BME280;11310;51.528;21.204;2023-02-28T04:59:26;101479.94;;;-5.77;100.00
22283;BME280;11310;51.528;21.204;2023-02-28T05:01:55;101483.22;;;-5.79;100.00
22283;BME280;11310;51.528;21.204;2023-02-28T05:04:24;101482.56;;;-5.75;100.00
22283;BME280;11310;51.528;21.204;2023-02-28T05:06:52;101474.97;;;-5.74;100.00
22283;BME280;11310;51.528;21.204;2023-02-28T05:09:22;101478.50;;;-5.70;100.00
22283;BME280;11310;51.528;21.204;2023-02-28T05:11:51;101477.75;;;-5.68;100.00
22283;BME280;11310;51.528;21.204;2023-02-28T05:14:22;101481.97;;;-5.68;100.00
22283;BME280;11310;51.528;21.204;2023-02-28T05:16:51;101482.66;;;-5.72;100.00
22283;BME280;11310;51.528;21.204;2023-02-28T05:19:20;101478.25;;;-5.76;100.00
22283;BME280;11310;51.528;21.204;2023-02-28T05:21:51;101482.47;;;-5.77;100.00
22283;BME280;11310;51.528;21.204;2023-02-28T05:24:21;101485.97;;;-5.75;100.00
22283;BME280;11310;51.528;21.204;2023-02-28T05:26:52;101488.72;;;-5.70;100.00
22283;BME280;11310;51.528;21.204;2023-02-28T05:29:23;101486.09;;;-5.72;100.00
22283;BME280;11310;51.528;21.204;2023-02-28T05:31:51;101499.69;;;-5.73;100.00
22283;BME280;11310;51.528;21.204;2023-02-28T05:34:20;101498.81;;;-5.73;100.00
22283;BME280;11310;51.528;21.204;2023-02-28T05:36:49;101492.03;;;-5.73;100.00
22283;BME280;11310;51.528;21.204;2023-02-28T05:39:18;101492.94;;;-5.71;100.00
22283;BME280;11310;51.528;21.204;2023-02-28T05:41:46;101496.56;;;-5.66;100.00
22283;BME280;11310;51.528;21.204;2023-02-28T05:44:15;101507.06;;;-5.60;100.00
22283;BME280;11310;51.528;21.204;2023-02-28T05:46:45;101507.44;;;-5.51;100.00
22283;BME280;11310;51.528;21.204;2023-02-28T05:49:14;101503.50;;;-5.43;100.00
22283;BME280;11310;51.528;21.204;2023-02-28T05:51:43;101503.88;;;-5.34;100.00
22283;BME280;11310;51.528;21.204;2023-02-28T05:54:12;101508.44;;;-5.27;100.00
22283;BME280;11310;51.528;21.204;2023-02-28T05:56:40;101509.56;;;-5.20;100.00
22283;BME280;11310;51.528;21.204;2023-02-28T05:59:11;101513.31;;;-5.12;100.00
22283;BME280;11310;51.528;21.204;2023-02-28T06:01:41;101519.66;;;-5.03;100.00
22283;BME280;11310;51.528;21.204;2023-02-28T06:04:19;101519.94;;;-4.95;100.00
22283;BME280;11310;51.528;21.204;2023-02-28T06:06:58;101520.94;;;-4.92;100.00
22283;BME280;11310;51.528;21.204;2023-02-28T06:09:26;101521.34;;;-4.81;100.00
22283;BME280;11310;51.528;21.204;2023-02-28T06:11:57;101522.59;;;-4.72;100.00
22283;BME280;11310;51.528;21.204;2023-02-28T06:14:26;101520.28;;;-4.66;100.00
22283;BME280;11310;51.528;21.204;2023-02-28T06:16:54;101526.38;;;-4.40;100.00
22283;BME280;11310;51.528;21.204;2023-02-28T06:19:26;101533.56;;;-4.30;100.00
22283;BME280;11310;51.528;21.204;2023-02-28T06:21:56;101534.75;;;-4.22;100.00
22283;BME280;11310;51.528;21.204;2023-02-28T06:24:27;101537.34;;;-4.21;100.00
22283;BME280;11310;51.528;21.204;2023-02-28T06:26:56;101534.94;;;-4.18;100.00
22283;BME280;11310;51.528;21.204;2023-02-28T06:29:26;101537.63;;;-4.13;100.00
22283;BME280;11310;51.528;21.204;2023-02-28T06:31:54;101549.09;;;-4.04;100.00
22283;BME280;11310;51.528;21.204;2023-02-28T06:34:23;101540.81;;;-3.97;100.00
22283;BME280;11310;51.528;21.204;2023-02-28T06:36:53;101543.13;;;-3.81;100.00
22283;BME280;11310;51.528;21.204;2023-02-28T06:39:21;101542.72;;;-3.68;100.00
22283;BME280;11310;51.528;21.204;2023-02-28T06:41:50;101547.44;;;-3.55;100.00
22283;BME280;11310;51.528;21.204;2023-02-28T06:44:22;101552.09;;;-3.45;100.00
22283;BME280;11310;51.528;21.204;2023-02-28T06:46:52;101545.47;;;-3.38;100.00
22283;BME280;11310;51.528;21.204;2023-02-28T06:49:20;101546.53;;;-3.32;100.00
22283;BME280;11310;51.528;21.204;2023-02-28T06:51:49;101550.34;;;-3.21;100.00
22283;BME280;11310;51.528;21.204;2023-02-28T06:54:19;101551.47;;;-3.13;100.00
22283;BME280;11310;51.528;21.204;2023-02-28T06:56:48;101545.81;;;-3.03;100.00
22283;BME280;11310;51.528;21.204;2023-02-28T06:59:17;101550.72;;;-2.84;100.00
22283;BME280;11310;51.528;21.204;2023-02-28T07:01:45;101553.19;;;-2.60;100.00
22283;BME280;11310;51.528;21.204;2023-02-28T07:04:14;101557.31;;;-2.64;100.00
22283;BME280;11310;51.528;21.204;2023-02-28T07:06:43;101551.28;;;-2.66;100.00
22283;BME280;11310;51.528;21.204;2023-02-28T07:09:11;101558.22;;;-2.63;100.00
22283;BME280;11310;51.528;21.204;2023-02-28T07:11:42;101566.94;;;-2.58;100.00
22283;BME280;11310;51.528;21.204;2023-02-28T07:14:11;101557.72;;;-2.52;100.00
22283;BME280;11310;51.528;21.204;2023-02-28T07:16:39;101556.16;;;-2.47;100.00
22283;BME280;11310;51.528;21.204;2023-02-28T07:19:08;101552.06;;;-2.40;100.00
22283;BME280;11310;51.528;21.204;2023-02-28T07:21:36;101564.31;;;-2.32;100.00
22283;BME280;11310;51.528;21.204;2023-02-28T07:24:06;101562.75;;;-2.27;100.00
22283;BME280;11310;51.528;21.204;2023-02-28T07:26:35;101562.13;;;-2.20;100.00
22283;BME280;11310;51.528;21.204;2023-02-28T07:29:05;101560.56;;;-2.15;100.00
22283;BME280;11310;51.528;21.204;2023-02-28T07:31:34;101567.63;;;-2.08;100.00
22283;BME280;11310;51.528;21.204;2023-02-28T07:34:02;101568.63;;;-2.03;100.00
22283;BME280;11310;51.528;21.204;2023-02-28T07:36:31;101568.00;;;-1.94;100.00
22283;BME280;11310;51.528;21.204;2023-02-28T07:39:00;101562.03;;;-1.93;100.00
22283;BME280;11310;51.528;21.204;2023-02-28T07:41:29;101559.63;;;-1.89;100.00
22283;BME280;11310;51.528;21.204;2023-02-28T07:44:01;101559.69;;;-1.86;100.00
22283;BME280;11310;51.528;21.204;2023-02-28T07:46:31;101560.63;;;-1.84;100.00
22283;BME280;11310;51.528;21.204;2023-02-28T07:49:04;101556.47;;;-1.79;100.00
22283;BME280;11310;51.528;21.204;2023-02-28T07:51:32;101553.22;;;-1.72;100.00
22283;BME280;11310;51.528;21.204;2023-02-28T07:54:01;101555.16;;;-1.65;100.00
22283;BME280;11310;51.528;21.204;2023-02-28T07:56:30;101556.88;;;-1.64;100.00
22283;BME280;11310;51.528;21.204;2023-02-28T07:58:59;101552.72;;;-1.59;100.00
22283;BME280;11310;51.528;21.204;2023-02-28T08:01:28;101549.53;;;-1.50;100.00
22283;BME280;11310;51.528;21.204;2023-02-28T08:03:59;101544.59;;;-1.43;100.00
22283;BME280;11310;51.528;21.204;2023-02-28T08:06:28;101550.81;;;-1.35;100.00
22283;BME280;11310;51.528;21.204;2023-02-28T08:08:56;101555.44;;;-1.22;100.00
22283;BME280;11310;51.528;21.204;2023-02-28T08:11:25;101539.63;;;-1.03;100.00
22283;BME280;11310;51.528;21.204;2023-02-28T08:13:54;101542.53;;;-0.89;100.00
22283;BME280;11310;51.528;21.204;2023-02-28T08:16:23;101541.88;;;-0.81;100.00
22283;BME280;11310;51.528;21.204;2023-02-28T08:18:52;101546.25;;;-0.77;100.00
22283;BME280;11310;51.528;21.204;2023-02-28T08:21:22;101545.78;;;-0.61;100.00
22283;BME280;11310;51.528;21.204;2023-02-28T08:23:51;101537.34;;;-0.54;100.00
22283;BME280;11310;51.528;21.204;2023-02-28T08:26:20;101542.00;;;-0.39;100.00
22283;BME280;11310;51.528;21.204;2023-02-28T08:28:49;101540.09;;;-0.08;99.40
22283;BME280;11310;51.528;21.204;2023-02-28T08:31:18;101540.28;;;0.45;97.85
22283;BME280;11310;51.528;21.204;2023-02-28T08:33:47;101542.81;;;1.43;92.39
22283;BME280;11310;51.528;21.204;2023-02-28T08:36:19;101539.22;;;1.93;89.47
22283;BME280;11310;51.528;21.204;2023-02-28T08:38:49;101536.81;;;4.11;80.40
22283;BME280;11310;51.528;21.204;2023-02-28T08:41:18;101527.34;;;6.09;70.87
22283;BME280;11310;51.528;21.204;2023-02-28T08:43:47;101529.16;;;7.28;62.01
22283;BME280;11310;51.528;21.204;2023-02-28T08:46:15;101526.44;;;8.20;58.64
22283;BME280;11310;51.528;21.204;2023-02-28T08:48:44;101534.13;;;8.35;57.44
22283;BME280;11310;51.528;21.204;2023-02-28T08:51:14;101536.91;;;8.23;57.71
22283;BME280;11310;51.528;21.204;2023-02-28T08:53:45;101543.09;;;8.81;56.38
22283;BME280;11310;51.528;21.204;2023-02-28T08:56:17;101533.00;;;9.61;53.83
22283;BME280;11310;51.528;21.204;2023-02-28T08:58:47;101530.59;;;10.39;50.91
22283;BME280;11310;51.528;21.204;2023-02-28T09:01:17;101532.00;;;10.93;50.67
22283;BME280;11310;51.528;21.204;2023-02-28T09:03:47;101528.44;;;11.32;49.43
22283;BME280;11310;51.528;21.204;2023-02-28T09:06:18;101523.09;;;12.01;47.87
22283;BME280;11310;51.528;21.204;2023-02-28T09:08:47;101523.00;;;12.62;45.05
22283;BME280;11310;51.528;21.204;2023-02-28T09:11:18;101533.03;;;13.07;44.24
22283;BME280;11310;51.528;21.204;2023-02-28T09:13:46;101534.06;;;13.29;43.60
22283;BME280;11310;51.528;21.204;2023-02-28T09:16:16;101536.56;;;13.58;42.99
22283;BME280;11310;51.528;21.204;2023-02-28T09:18:45;101532.91;;;13.87;42.42
22283;BME280;11310;51.528;21.204;2023-02-28T09:21:15;101528.81;;;14.27;41.92
22283;BME280;11310;51.528;21.204;2023-02-28T09:23:45;101527.38;;;14.42;41.68
22283;BME280;11310;51.528;21.204;2023-02-28T09:26:15;101531.16;;;14.35;41.99
22283;BME280;11310;51.528;21.204;2023-02-28T09:28:46;101530.56;;;14.50;41.62
22283;BME280;11310;51.528;21.204;2023-02-28T09:31:16;101532.41;;;14.48;40.51
22283;BME280;11310;51.528;21.204;2023-02-28T09:33:48;101538.84;;;14.64;41.17
22283;BME280;11310;51.528;21.204;2023-02-28T09:36:18;101535.97;;;14.91;40.87
22283;BME280;11310;51.528;21.204;2023-02-28T09:38:48;101542.69;;;15.21;39.51
22283;BME280;11310;51.528;21.204;2023-02-28T09:41:20;101543.91;;;15.13;39.14
22283;BME280;11310;51.528;21.204;2023-02-28T09:43:53;101534.88;;;15.18;38.92
22283;BME280;11310;51.528;21.204;2023-02-28T09:46:31;101548.97;;;15.40;38.64
22283;BME280;11310;51.528;21.204;2023-02-28T09:49:04;101542.38;;;15.50;39.00
22283;BME280;11310;51.528;21.204;2023-02-28T09:51:40;101540.88;;;15.43;36.83
22283;BME280;11310;51.528;21.204;2023-02-28T09:54:15;101543.03;;;15.35;39.60
22283;BME280;11310;51.528;21.204;2023-02-28T09:56:49;101543.06;;;15.12;39.65
22283;BME280;11310;51.528;21.204;2023-02-28T09:59:43;101556.19;;;14.92;35.13
22283;BME280;11310;51.528;21.204;2023-02-28T10:02:42;101560.81;;;15.30;35.18
22283;BME280;11310;51.528;21.204;2023-02-28T10:05:15;101548.41;;;15.74;39.97
22283;BME280;11310;51.528;21.204;2023-02-28T10:08:05;101546.06;;;16.06;33.50
22283;BME280;11310;51.528;21.204;2023-02-28T10:10:39;101543.78;;;16.37;37.26
22283;BME280;11310;51.528;21.204;2023-02-28T10:13:15;101551.53;;;16.03;33.98
22283;BME280;11310;51.528;21.204;2023-02-28T10:15:50;101546.28;;;15.82;36.04
22283;BME280;11310;51.528;21.204;2023-02-28T10:18:24;101543.31;;;15.49;38.25
22283;BME280;11310;51.528;21.204;2023-02-28T10:20:54;101542.50;;;15.47;39.64
22283;BME280;11310;51.528;21.204;2023-02-28T10:23:26;101540.38;;;15.35;38.79
22283;BME280;11310;51.528;21.204;2023-02-28T10:26:00;101537.03;;;15.09;37.51
22283;BME280;11310;51.528;21.204;2023-02-28T10:28:29;101533.69;;;15.04;39.79
22283;BME280;11310;51.528;21.204;2023-02-28T10:31:00;101534.75;;;15.21;37.98
22283;BME280;11310;51.528;21.204;2023-02-28T10:33:32;101531.78;;;15.70;38.04
22283;BME280;11310;51.528;21.204;2023-02-28T10:36:02;101533.91;;;16.02;30.27
22283;BME280;11310;51.528;21.204;2023-02-28T10:38:36;101525.22;;;16.37;37.45
22283;BME280;11310;51.528;21.204;2023-02-28T10:41:07;101532.22;;;16.95;37.12
22283;BME280;11310;51.528;21.204;2023-02-28T10:43:37;101529.44;;;17.15;36.83
22283;BME280;11310;51.528;21.204;2023-02-28T10:46:13;101526.75;;;16.98;31.89
22283;BME280;11310;51.528;21.204;2023-02-28T10:49:02;101532.44;;;16.72;31.84
22283;BME280;11310;51.528;21.204;2023-02-28T10:51:37;101538.22;;;16.43;33.83
22283;BME280;11310;51.528;21.204;2023-02-28T10:54:15;101521.13;;;16.12;35.46
22283;BME280;11310;51.528;21.204;2023-02-28T10:56:44;101523.47;;;15.99;38.47
22283;BME280;11310;51.528;21.204;2023-02-28T10:59:30;101528.41;;;16.82;31.61
22283;BME280;11310;51.528;21.204;2023-02-28T11:02:00;101513.97;;;17.76;35.70
22283;BME280;11310;51.528;21.204;2023-02-28T11:04:34;101509.69;;;17.73;33.06
22283;BME280;11310;51.528;21.204;2023-02-28T11:07:06;101507.28;;;18.18;34.18
22283;BME280;11310;51.528;21.204;2023-02-28T11:09:49;101503.84;;;17.99;35.08
22283;BME280;11310;51.528;21.204;2023-02-28T11:12:23;101499.66;;;17.95;31.38
22283;BME280;11310;51.528;21.204;2023-02-28T11:14:55;101507.56;;;18.12;34.48
22283;BME280;11310;51.528;21.204;2023-02-28T11:17:28;101505.91;;;18.27;33.70
22283;BME280;11310;51.528;21.204;2023-02-28T11:19:59;101497.47;;;18.36;33.94
22283;BME280;11310;51.528;21.204;2023-02-28T11:22:32;101490.75;;;17.96;33.83
22283;BME280;11310;51.528;21.204;2023-02-28T11:25:08;101490.19;;;18.07;32.70
22283;BME280;11310;51.528;21.204;2023-02-28T11:27:47;101480.66;;;18.03;30.25
22283;BME280;11310;51.528;21.204;2023-02-28T11:30:32;101488.19;;;18.27;29.81
22283;BME280;11310;51.528;21.204;2023-02-28T11:33:21;101486.22;;;17.81;28.75
22283;BME280;11310;51.528;21.204;2023-02-28T11:35:51;101480.41;;;17.75;34.81
22283;BME280;11310;51.528;21.204;2023-02-28T11:38:21;101478.59;;;17.58;34.37
22283;BME280;11310;51.528;21.204;2023-02-28T11:41:02;101479.63;;;17.56;29.46
22283;BME280;11310;51.528;21.204;2023-02-28T11:43:46;101473.94;;;17.46;31.68
22283;BME280;11310;51.528;21.204;2023-02-28T11:46:25;101470.34;;;17.47;31.96
22283;BME280;11310;51.528;21.204;2023-02-28T11:49:10;101474.22;;;17.74;31.97
22283;BME280;11310;51.528;21.204;2023-02-28T11:51:47;101468.84;;;18.08;29.52
22283;BME280;11310;51.528;21.204;2023-02-28T11:54:27;101469.78;;;18.40;28.88
22283;BME280;11310;51.528;21.204;2023-02-28T11:57:00;101463.22;;;18.14;32.50
22283;BME280;11310;51.528;21.204;2023-02-28T11:59:43;101465.94;;;18.13;28.84
22283;BME280;11310;51.528;21.204;2023-02-28T12:02:26;101462.50;;;18.11;27.68
22283;BME280;11310;51.528;21.204;2023-02-28T12:05:10;101464.19;;;17.96;29.86
22283;BME280;11310;51.528;21.204;2023-02-28T12:07:49;101453.25;;;17.85;29.56
22283;BME280;11310;51.528;21.204;2023-02-28T12:10:22;101452.50;;;17.83;33.06
22283;BME280;11310;51.528;21.204;2023-02-28T12:13:02;101456.34;;;18.10;29.17
22283;BME280;11310;51.528;21.204;2023-02-28T12:18:56;101444.31;;;18.36;27.36
22283;BME280;11310;51.528;21.204;2023-02-28T12:21:41;101445.34;;;18.64;30.16
22283;BME280;11310;51.528;21.204;2023-02-28T12:24:45;101444.97;;;19.01;27.69
22283;BME280;11310;51.528;21.204;2023-02-28T12:27:19;101439.28;;;19.07;31.05
22283;BME280;11310;51.528;21.204;2023-02-28T12:29:57;101434.81;;;19.23;31.82
22283;BME280;11310;51.528;21.204;2023-02-28T12:32:30;101437.69;;;18.43;29.95
22283;BME280;11310;51.528;21.204;2023-02-28T12:35:03;101422.13;;;18.52;31.90
22283;BME280;11310;51.528;21.204;2023-02-28T12:37:37;101430.84;;;18.54;30.10
22283;BME280;11310;51.528;21.204;2023-02-28T12:40:12;101426.22;;;18.42;30.42
22283;BME280;11310;51.528;21.204;2023-02-28T12:42:45;101423.13;;;18.65;30.98
22283;BME280;11310;51.528;21.204;2023-02-28T12:45:19;101421.16;;;18.69;31.42
22283;BME280;11310;51.528;21.204;2023-02-28T12:47:55;101421.00;;;18.41;31.08
22283;BME280;11310;51.528;21.204;2023-02-28T12:50:26;101414.75;;;17.94;32.60
22283;BME280;11310;51.528;21.204;2023-02-28T12:53:02;101405.19;;;17.74;31.46
22283;BME280;11310;51.528;21.204;2023-02-28T12:55:38;101412.56;;;17.01;31.95
22283;BME280;11310;51.528;21.204;2023-02-28T12:58:14;101412.41;;;15.96;34.66
22283;BME280;11310;51.528;21.204;2023-02-28T13:01:04;101409.09;;;14.71;33.17
22283;BME280;11310;51.528;21.204;2023-02-28T13:03:49;101403.06;;;14.68;33.95
22283;BME280;11310;51.528;21.204;2023-02-28T13:06:32;101398.91;;;15.24;34.07